sensor_id;sensor_type;location;lat;lon;timestamp;P1;durP1;ratioP1;P2;durP2;ratioP2
73841;SDS011;62184;52.006;5.924;2022-12-04T00:01:13;67.88;;;27.98;;
73841;SDS011;62184;52.006;5.924;2022-12-04T00:03:42;66.75;;;27.75;;
73841;SDS011;62184;52.006;5.924;2022-12-04T00:06:10;68.72;;;28.17;;
73841;SDS011;62184;52.006;5.924;2022-12-04T00:08:42;64.88;;;27.35;;
73841;SDS011;62184;52.006;5.924;2022-12-04T00:11:11;64.00;;;26.20;;
73841;SDS011;62184;52.006;5.924;2022-12-04T00:13:39;67.80;;;28.10;;
73841;SDS011;62184;52.006;5.924;2022-12-04T00:16:11;71.00;;;28.88;;
73841;SDS011;62184;52.006;5.924;2022-12-04T00:18:41;64.35;;;28.48;;
73841;SDS011;62184;52.006;5.924;2022-12-04T00:21:08;70.10;;;29.33;;
73841;SDS011;62184;52.006;5.924;2022-12-04T00:23:39;70.70;;;29.27;;
73841;SDS011;62184;52.006;5.924;2022-12-04T00:26:08;65.63;;;28.23;;
73841;SDS011;62184;52.006;5.924;2022-12-04T00:28:37;65.97;;;28.00;;
73841;SDS011;62184;52.006;5.924;2022-12-04T00:31:04;69.32;;;28.88;;
73841;SDS011;62184;52.006;5.924;2022-12-04T00:33:37;68.28;;;28.60;;
73841;SDS011;62184;52.006;5.924;2022-12-04T00:36:05;68.13;;;29.13;;
73841;SDS011;62184;52.006;5.924;2022-12-04T00:38:35;69.33;;;29.57;;
73841;SDS011;62184;52.006;5.924;2022-12-04T00:41:03;69.30;;;29.02;;
73841;SDS011;62184;52.006;5.924;2022-12-04T00:43:30;68.50;;;29.03;;
73841;SDS011;62184;52.006;5.924;2022-12-04T00:45:57;67.28;;;28.15;;
73841;SDS011;62184;52.006;5.924;2022-12-04T00:48:26;65.88;;;28.38;;
73841;SDS011;62184;52.006;5.924;2022-12-04T00:50:52;69.70;;;29.70;;
73841;SDS011;62184;52.006;5.924;2022-12-04T00:53:19;69.37;;;28.90;;
73841;SDS011;62184;52.006;5.924;2022-12-04T00:55:46;70.57;;;29.92;;
73841;SDS011;62184;52.006;5.924;2022-12-04T00:58:12;69.85;;;28.88;;
73841;SDS011;62184;52.006;5.924;2022-12-04T01:00:39;69.18;;;29.85;;
73841;SDS011;62184;52.006;5.924;2022-12-04T01:03:07;69.03;;;30.50;;
73841;SDS011;62184;52.006;5.924;2022-12-04T01:05:39;68.85;;;28.42;;
73841;SDS011;62184;52.006;5.924;2022-12-04T01:08:09;67.57;;;28.20;;
73841;SDS011;62184;52.006;5.924;2022-12-04T01:10:37;69.17;;;28.50;;
73841;SDS011;62184;52.006;5.924;2022-12-04T01:13:06;66.72;;;27.00;;
73841;SDS011;62184;52.006;5.924;2022-12-04T01:15:32;68.63;;;28.25;;
73841;SDS011;62184;52.006;5.924;2022-12-04T01:18:03;69.35;;;28.33;;
73841;SDS011;62184;52.006;5.924;2022-12-04T01:20:29;64.80;;;27.70;;
73841;SDS011;62184;52.006;5.924;2022-12-04T01:22:58;69.10;;;29.02;;
73841;SDS011;62184;52.006;5.924;2022-12-04T01:25:25;67.60;;;27.13;;
73841;SDS011;62184;52.006;5.924;2022-12-04T01:27:51;66.17;;;28.43;;
73841;SDS011;62184;52.006;5.924;2022-12-04T01:30:17;66.23;;;28.50;;
73841;SDS011;62184;52.006;5.924;2022-12-04T01:32:44;69.78;;;29.38;;
73841;SDS011;62184;52.006;5.924;2022-12-04T01:35:10;66.85;;;28.30;;
73841;SDS011;62184;52.006;5.924;2022-12-04T01:37:37;68.72;;;27.60;;
73841;SDS011;62184;52.006;5.924;2022-12-04T01:40:09;68.83;;;28.50;;
73841;SDS011;62184;52.006;5.924;2022-12-04T01:42:39;69.53;;;29.40;;
73841;SDS011;62184;52.006;5.924;2022-12-04T01:48:06;68.70;;;29.75;;
73841;SDS011;62184;52.006;5.924;2022-12-04T01:50:43;66.05;;;28.92;;
73841;SDS011;62184;52.006;5.924;2022-12-04T01:53:14;66.35;;;27.85;;
73841;SDS011;62184;52.006;5.924;2022-12-04T01:55:45;66.90;;;28.13;;
73841;SDS011;62184;52.006;5.924;2022-12-04T01:58:13;66.07;;;28.40;;
73841;SDS011;62184;52.006;5.924;2022-12-04T02:00:44;66.10;;;29.27;;
73841;SDS011;62184;52.006;5.924;2022-12-04T02:03:19;70.40;;;28.77;;
73841;SDS011;62184;52.006;5.924;2022-12-04T02:05:46;69.57;;;29.25;;
73841;SDS011;62184;52.006;5.924;2022-12-04T02:08:12;68.68;;;27.80;;
73841;SDS011;62184;52.006;5.924;2022-12-04T02:10:41;70.95;;;29.77;;
73841;SDS011;62184;52.006;5.924;2022-12-04T02:13:25;70.10;;;29.05;;
73841;SDS011;62184;52.006;5.924;2022-12-04T02:16:02;64.88;;;27.50;;
73841;SDS011;62184;52.006;5.924;2022-12-04T02:18:40;65.70;;;27.65;;
73841;SDS011;62184;52.006;5.924;2022-12-04T02:21:20;73.30;;;29.90;;
73841;SDS011;62184;52.006;5.924;2022-12-04T02:24:00;67.80;;;28.40;;
73841;SDS011;62184;52.006;5.924;2022-12-04T02:26:55;69.25;;;28.73;;
73841;SDS011;62184;52.006;5.924;2022-12-04T02:29:33;70.13;;;29.63;;
73841;SDS011;62184;52.006;5.924;2022-12-04T02:32:12;72.45;;;31.17;;
73841;SDS011;62184;52.006;5.924;2022-12-04T02:34:49;70.70;;;30.70;;
73841;SDS011;62184;52.006;5.924;2022-12-04T02:37:24;69.23;;;28.73;;
73841;SDS011;62184;52.006;5.924;2022-12-04T02:39:58;72.13;;;29.65;;
73841;SDS011;62184;52.006;5.924;2022-12-04T02:42:34;72.37;;;29.73;;
73841;SDS011;62184;52.006;5.924;2022-12-04T02:45:10;66.97;;;29.00;;
73841;SDS011;62184;52.006;5.924;2022-12-04T02:47:44;70.93;;;29.75;;
73841;SDS011;62184;52.006;5.924;2022-12-04T02:50:12;65.82;;;26.83;;
73841;SDS011;62184;52.006;5.924;2022-12-04T02:52:45;68.85;;;30.08;;
73841;SDS011;62184;52.006;5.924;2022-12-04T02:55:18;72.07;;;30.25;;
73841;SDS011;62184;52.006;5.924;2022-12-04T02:57:54;69.20;;;28.50;;
73841;SDS011;62184;52.006;5.924;2022-12-04T03:00:30;66.20;;;28.20;;
73841;SDS011;62184;52.006;5.924;2022-12-04T03:03:00;70.93;;;29.83;;
73841;SDS011;62184;52.006;5.924;2022-12-04T03:05:34;70.28;;;28.98;;
73841;SDS011;62184;52.006;5.924;2022-12-04T03:08:09;67.15;;;27.15;;
73841;SDS011;62184;52.006;5.924;2022-12-04T03:10:42;66.25;;;28.45;;
73841;SDS011;62184;52.006;5.924;2022-12-04T03:13:17;69.43;;;28.20;;
73841;SDS011;62184;52.006;5.924;2022-12-04T03:15:52;74.38;;;29.98;;
73841;SDS011;62184;52.006;5.924;2022-12-04T03:18:28;64.67;;;27.77;;
73841;SDS011;62184;52.006;5.924;2022-12-04T03:21:03;66.47;;;28.75;;
73841;SDS011;62184;52.006;5.924;2022-12-04T03:23:36;70.97;;;29.63;;
73841;SDS011;62184;52.006;5.924;2022-12-04T03:26:11;68.43;;;29.58;;
73841;SDS011;62184;52.006;5.924;2022-12-04T03:28:50;70.32;;;28.73;;
73841;SDS011;62184;52.006;5.924;2022-12-04T03:31:28;64.65;;;27.45;;
73841;SDS011;62184;52.006;5.924;2022-12-04T03:34:03;69.43;;;28.80;;
73841;SDS011;62184;52.006;5.924;2022-12-04T03:36:34;64.53;;;27.95;;
73841;SDS011;62184;52.006;5.924;2022-12-04T03:39:12;65.07;;;28.50;;
73841;SDS011;62184;52.006;5.924;2022-12-04T03:41:49;66.85;;;28.02;;
73841;SDS011;62184;52.006;5.924;2022-12-04T03:44:24;67.30;;;27.80;;
73841;SDS011;62184;52.006;5.924;2022-12-04T03:47:05;67.40;;;28.98;;
73841;SDS011;62184;52.006;5.924;2022-12-04T03:49:39;63.53;;;28.13;;
73841;SDS011;62184;52.006;5.924;2022-12-04T03:52:16;64.60;;;28.77;;
73841;SDS011;62184;52.006;5.924;2022-12-04T03:54:52;69.70;;;29.75;;
73841;SDS011;62184;52.006;5.924;2022-12-04T03:57:27;68.00;;;29.73;;
73841;SDS011;62184;52.006;5.924;2022-12-04T04:00:00;68.97;;;29.10;;
73841;SDS011;62184;52.006;5.924;2022-12-04T04:02:35;68.35;;;30.10;;
73841;SDS011;62184;52.006;5.924;2022-12-04T04:05:07;68.65;;;29.05;;
73841;SDS011;62184;52.006;5.924;2022-12-04T04:07:39;67.88;;;29.23;;
73841;SDS011;62184;52.006;5.924;2022-12-04T04:10:13;69.82;;;28.58;;
73841;SDS011;62184;52.006;5.924;2022-12-04T04:12:45;67.35;;;30.05;;
73841;SDS011;62184;52.006;5.924;2022-12-04T04:15:18;69.00;;;30.10;;
73841;SDS011;62184;52.006;5.924;2022-12-04T04:17:47;67.75;;;28.52;;
73841;SDS011;62184;52.006;5.924;2022-12-04T04:20:17;70.53;;;30.43;;
73841;SDS011;62184;52.006;5.924;2022-12-04T04:22:49;70.75;;;29.38;;
73841;SDS011;62184;52.006;5.924;2022-12-04T04:25:23;67.03;;;28.25;;
73841;SDS011;62184;52.006;5.924;2022-12-04T04:27:53;66.32;;;28.65;;
73841;SDS011;62184;52.006;5.924;2022-12-04T04:30:23;67.53;;;28.80;;
73841;SDS011;62184;52.006;5.924;2022-12-04T04:32:54;64.72;;;27.40;;
73841;SDS011;62184;52.006;5.924;2022-12-04T04:35:29;68.13;;;29.67;;
73841;SDS011;62184;52.006;5.924;2022-12-04T04:38:12;69.40;;;29.45;;
73841;SDS011;62184;52.006;5.924;2022-12-04T04:40:49;70.43;;;29.33;;
73841;SDS011;62184;52.006;5.924;2022-12-04T04:43:24;67.85;;;30.30;;
73841;SDS011;62184;52.006;5.924;2022-12-04T04:46:01;64.88;;;27.40;;
73841;SDS011;62184;52.006;5.924;2022-12-04T04:48:37;66.55;;;28.63;;
73841;SDS011;62184;52.006;5.924;2022-12-04T04:51:08;68.40;;;28.55;;
73841;SDS011;62184;52.006;5.924;2022-12-04T04:53:37;66.13;;;27.63;;
73841;SDS011;62184;52.006;5.924;2022-12-04T04:56:10;71.03;;;28.95;;
73841;SDS011;62184;52.006;5.924;2022-12-04T04:58:38;63.88;;;28.70;;
73841;SDS011;62184;52.006;5.924;2022-12-04T05:01:06;65.32;;;27.38;;
73841;SDS011;62184;52.006;5.924;2022-12-04T05:03:39;66.68;;;28.63;;
73841;SDS011;62184;52.006;5.924;2022-12-04T05:06:06;62.93;;;27.50;;
73841;SDS011;62184;52.006;5.924;2022-12-04T05:08:33;64.27;;;27.27;;
73841;SDS011;62184;52.006;5.924;2022-12-04T05:10:59;61.75;;;26.67;;
73841;SDS011;62184;52.006;5.924;2022-12-04T05:13:26;64.45;;;27.13;;
73841;SDS011;62184;52.006;5.924;2022-12-04T05:15:55;63.55;;;28.77;;
73841;SDS011;62184;52.006;5.924;2022-12-04T05:18:23;62.20;;;27.40;;
73841;SDS011;62184;52.006;5.924;2022-12-04T05:20:52;64.90;;;27.17;;
73841;SDS011;62184;52.006;5.924;2022-12-04T05:23:19;66.10;;;27.77;;
73841;SDS011;62184;52.006;5.924;2022-12-04T05:25:46;62.78;;;27.92;;
73841;SDS011;62184;52.006;5.924;2022-12-04T05:28:13;65.90;;;28.25;;
73841;SDS011;62184;52.006;5.924;2022-12-04T05:30:39;65.05;;;28.95;;
73841;SDS011;62184;52.006;5.924;2022-12-04T05:33:06;64.45;;;27.92;;
73841;SDS011;62184;52.006;5.924;2022-12-04T05:35:32;68.57;;;27.85;;
73841;SDS011;62184;52.006;5.924;2022-12-04T05:38:01;62.20;;;27.42;;
73841;SDS011;62184;52.006;5.924;2022-12-04T05:40:27;62.08;;;26.70;;
73841;SDS011;62184;52.006;5.924;2022-12-04T05:42:54;60.17;;;27.17;;
73841;SDS011;62184;52.006;5.924;2022-12-04T05:45:20;63.67;;;27.67;;
73841;SDS011;62184;52.006;5.924;2022-12-04T05:47:46;64.80;;;27.42;;
73841;SDS011;62184;52.006;5.924;2022-12-04T05:50:13;60.95;;;26.17;;
73841;SDS011;62184;52.006;5.924;2022-12-04T05:52:39;61.63;;;25.95;;
73841;SDS011;62184;52.006;5.924;2022-12-04T05:55:08;61.75;;;26.25;;
73841;SDS011;62184;52.006;5.924;2022-12-04T05:57:35;60.20;;;25.73;;
73841;SDS011;62184;52.006;5.924;2022-12-04T06:00:02;61.27;;;27.63;;
73841;SDS011;62184;52.006;5.924;2022-12-04T06:02:30;62.17;;;26.90;;
73841;SDS011;62184;52.006;5.924;2022-12-04T06:04:58;63.40;;;26.73;;
73841;SDS011;62184;52.006;5.924;2022-12-04T06:07:25;61.10;;;26.42;;
73841;SDS011;62184;52.006;5.924;2022-12-04T06:09:51;60.15;;;26.58;;
73841;SDS011;62184;52.006;5.924;2022-12-04T06:12:22;63.10;;;26.80;;
73841;SDS011;62184;52.006;5.924;2022-12-04T06:14:49;62.45;;;26.88;;
73841;SDS011;62184;52.006;5.924;2022-12-04T06:17:15;61.72;;;26.80;;
73841;SDS011;62184;52.006;5.924;2022-12-04T06:19:41;53.20;;;23.77;;
73841;SDS011;62184;52.006;5.924;2022-12-04T06:22:08;65.35;;;28.02;;
73841;SDS011;62184;52.006;5.924;2022-12-04T06:24:34;63.65;;;27.88;;
73841;SDS011;62184;52.006;5.924;2022-12-04T06:27:00;65.25;;;27.45;;
73841;SDS011;62184;52.006;5.924;2022-12-04T06:29:29;59.58;;;26.17;;
73841;SDS011;62184;52.006;5.924;2022-12-04T06:31:56;65.60;;;26.40;;
73841;SDS011;62184;52.006;5.924;2022-12-04T06:34:23;63.83;;;26.80;;
73841;SDS011;62184;52.006;5.924;2022-12-04T06:36:49;58.57;;;26.23;;
73841;SDS011;62184;52.006;5.924;2022-12-04T06:39:15;61.63;;;27.00;;
73841;SDS011;62184;52.006;5.924;2022-12-04T06:41:42;62.17;;;26.67;;
73841;SDS011;62184;52.006;5.924;2022-12-04T06:44:08;60.37;;;26.10;;
73841;SDS011;62184;52.006;5.924;2022-12-04T06:46:37;62.37;;;26.83;;
73841;SDS011;62184;52.006;5.924;2022-12-04T06:49:04;58.42;;;26.42;;
73841;SDS011;62184;52.006;5.924;2022-12-04T06:51:31;59.33;;;26.65;;
73841;SDS011;62184;52.006;5.924;2022-12-04T06:53:59;61.90;;;25.35;;
73841;SDS011;62184;52.006;5.924;2022-12-04T06:56:27;62.80;;;27.00;;
73841;SDS011;62184;52.006;5.924;2022-12-04T06:58:56;55.22;;;24.85;;
73841;SDS011;62184;52.006;5.924;2022-12-04T07:01:27;56.83;;;24.55;;
73841;SDS011;62184;52.006;5.924;2022-12-04T07:03:59;57.77;;;25.13;;
73841;SDS011;62184;52.006;5.924;2022-12-04T07:06:27;57.40;;;25.03;;
73841;SDS011;62184;52.006;5.924;2022-12-04T07:08:57;55.67;;;23.67;;
73841;SDS011;62184;52.006;5.924;2022-12-04T07:11:26;61.40;;;25.63;;
73841;SDS011;62184;52.006;5.924;2022-12-04T07:13:53;60.38;;;24.90;;
73841;SDS011;62184;52.006;5.924;2022-12-04T07:16:21;60.67;;;25.58;;
73841;SDS011;62184;52.006;5.924;2022-12-04T07:18:49;58.05;;;24.83;;
73841;SDS011;62184;52.006;5.924;2022-12-04T07:21:20;58.10;;;25.10;;
73841;SDS011;62184;52.006;5.924;2022-12-04T07:23:48;57.15;;;24.38;;
73841;SDS011;62184;52.006;5.924;2022-12-04T07:26:16;55.23;;;24.67;;
73841;SDS011;62184;52.006;5.924;2022-12-04T07:28:45;57.97;;;25.50;;
73841;SDS011;62184;52.006;5.924;2022-12-04T07:31:12;57.97;;;24.52;;
73841;SDS011;62184;52.006;5.924;2022-12-04T07:33:41;56.20;;;24.17;;
73841;SDS011;62184;52.006;5.924;2022-12-04T07:36:11;57.10;;;24.45;;
73841;SDS011;62184;52.006;5.924;2022-12-04T07:38:42;57.90;;;25.30;;
73841;SDS011;62184;52.006;5.924;2022-12-04T07:41:09;57.95;;;26.20;;
73841;SDS011;62184;52.006;5.924;2022-12-04T07:43:37;57.28;;;24.38;;
73841;SDS011;62184;52.006;5.924;2022-12-04T07:46:05;54.28;;;24.20;;
73841;SDS011;62184;52.006;5.924;2022-12-04T07:48:34;54.55;;;24.25;;
73841;SDS011;62184;52.006;5.924;2022-12-04T07:51:01;58.78;;;26.33;;
73841;SDS011;62184;52.006;5.924;2022-12-04T07:53:29;55.47;;;23.95;;
73841;SDS011;62184;52.006;5.924;2022-12-04T07:55:58;56.53;;;24.50;;
73841;SDS011;62184;52.006;5.924;2022-12-04T07:58:24;57.67;;;25.23;;
73841;SDS011;62184;52.006;5.924;2022-12-04T08:00:51;55.33;;;22.67;;
73841;SDS011;62184;52.006;5.924;2022-12-04T08:03:17;54.13;;;23.42;;
73841;SDS011;62184;52.006;5.924;2022-12-04T08:05:44;51.03;;;22.38;;
73841;SDS011;62184;52.006;5.924;2022-12-04T08:08:10;50.97;;;22.95;;
73841;SDS011;62184;52.006;5.924;2022-12-04T08:10:38;55.97;;;25.20;;
73841;SDS011;62184;52.006;5.924;2022-12-04T08:13:07;56.58;;;23.42;;
73841;SDS011;62184;52.006;5.924;2022-12-04T08:15:33;50.33;;;22.83;;
73841;SDS011;62184;52.006;5.924;2022-12-04T08:18:00;53.53;;;22.23;;
73841;SDS011;62184;52.006;5.924;2022-12-04T08:20:26;52.90;;;22.67;;
73841;SDS011;62184;52.006;5.924;2022-12-04T08:22:52;50.57;;;22.47;;
73841;SDS011;62184;52.006;5.924;2022-12-04T08:25:19;51.90;;;22.97;;
73841;SDS011;62184;52.006;5.924;2022-12-04T08:27:45;51.38;;;22.00;;
73841;SDS011;62184;52.006;5.924;2022-12-04T08:30:14;54.10;;;23.08;;
73841;SDS011;62184;52.006;5.924;2022-12-04T08:32:42;53.10;;;22.90;;
73841;SDS011;62184;52.006;5.924;2022-12-04T08:35:08;54.30;;;23.38;;
73841;SDS011;62184;52.006;5.924;2022-12-04T08:37:34;52.10;;;22.47;;
73841;SDS011;62184;52.006;5.924;2022-12-04T08:40:01;51.63;;;23.17;;
73841;SDS011;62184;52.006;5.924;2022-12-04T08:42:27;56.00;;;23.65;;
73841;SDS011;62184;52.006;5.924;2022-12-04T08:44:53;50.20;;;22.03;;
73841;SDS011;62184;52.006;5.924;2022-12-04T08:47:22;54.77;;;23.70;;
73841;SDS011;62184;52.006;5.924;2022-12-04T08:49:49;51.20;;;22.60;;
73841;SDS011;62184;52.006;5.924;2022-12-04T08:52:15;54.78;;;23.65;;
73841;SDS011;62184;52.006;5.924;2022-12-04T08:54:42;57.55;;;24.50;;
73841;SDS011;62184;52.006;5.924;2022-12-04T08:57:08;55.70;;;23.27;;
73841;SDS011;62184;52.006;5.924;2022-12-04T08:59:34;46.30;;;21.15;;
73841;SDS011;62184;52.006;5.924;2022-12-04T09:02:01;52.75;;;23.25;;
73841;SDS011;62184;52.006;5.924;2022-12-04T09:04:30;53.50;;;23.40;;
73841;SDS011;62184;52.006;5.924;2022-12-04T09:06:56;50.33;;;22.80;;
73841;SDS011;62184;52.006;5.924;2022-12-04T09:09:22;56.13;;;22.80;;
73841;SDS011;62184;52.006;5.924;2022-12-04T09:11:49;49.28;;;21.75;;
73841;SDS011;62184;52.006;5.924;2022-12-04T09:14:15;45.50;;;20.45;;
73841;SDS011;62184;52.006;5.924;2022-12-04T09:16:42;49.20;;;21.35;;
73841;SDS011;62184;52.006;5.924;2022-12-04T09:19:08;50.72;;;21.83;;
73841;SDS011;62184;52.006;5.924;2022-12-04T09:21:37;47.88;;;20.77;;
73841;SDS011;62184;52.006;5.924;2022-12-04T09:24:04;45.85;;;19.27;;
73841;SDS011;62184;52.006;5.924;2022-12-04T09:26:31;47.13;;;22.02;;
73841;SDS011;62184;52.006;5.924;2022-12-04T09:28:58;45.05;;;20.48;;
73841;SDS011;62184;52.006;5.924;2022-12-04T09:31:27;45.78;;;21.10;;
73841;SDS011;62184;52.006;5.924;2022-12-04T09:33:56;45.28;;;20.20;;
73841;SDS011;62184;52.006;5.924;2022-12-04T09:36:24;45.20;;;19.88;;
73841;SDS011;62184;52.006;5.924;2022-12-04T09:38:53;44.47;;;19.23;;
73841;SDS011;62184;52.006;5.924;2022-12-04T09:41:32;38.03;;;16.73;;
73841;SDS011;62184;52.006;5.924;2022-12-04T09:44:33;38.87;;;18.27;;
73841;SDS011;62184;52.006;5.924;2022-12-04T09:47:08;36.05;;;16.42;;
73841;SDS011;62184;52.006;5.924;2022-12-04T09:49:45;32.30;;;15.35;;
73841;SDS011;62184;52.006;5.924;2022-12-04T09:52:22;38.38;;;17.70;;
73841;SDS011;62184;52.006;5.924;2022-12-04T09:55:03;30.30;;;14.48;;
73841;SDS011;62184;52.006;5.924;2022-12-04T09:57:41;29.85;;;14.75;;
73841;SDS011;62184;52.006;5.924;2022-12-04T10:00:13;31.27;;;14.45;;
73841;SDS011;62184;52.006;5.924;2022-12-04T10:02:43;33.78;;;16.15;;
73841;SDS011;62184;52.006;5.924;2022-12-04T10:05:17;34.97;;;16.53;;
73841;SDS011;62184;52.006;5.924;2022-12-04T10:07:52;33.00;;;15.80;;
73841;SDS011;62184;52.006;5.924;2022-12-04T10:10:37;32.97;;;14.97;;
73841;SDS011;62184;52.006;5.924;2022-12-04T10:13:10;31.40;;;15.02;;
73841;SDS011;62184;52.006;5.924;2022-12-04T10:15:56;31.08;;;15.13;;
73841;SDS011;62184;52.006;5.924;2022-12-04T10:18:39;30.85;;;15.15;;
73841;SDS011;62184;52.006;5.924;2022-12-04T10:21:19;28.60;;;14.25;;
73841;SDS011;62184;52.006;5.924;2022-12-04T10:24:08;29.27;;;14.57;;
73841;SDS011;62184;52.006;5.924;2022-12-04T10:26:51;27.63;;;14.20;;
73841;SDS011;62184;52.006;5.924;2022-12-04T10:29:25;28.83;;;14.77;;
73841;SDS011;62184;52.006;5.924;2022-12-04T10:32:05;27.02;;;13.80;;
73841;SDS011;62184;52.006;5.924;2022-12-04T10:34:44;27.58;;;13.52;;
73841;SDS011;62184;52.006;5.924;2022-12-04T10:37:15;26.93;;;13.33;;
73841;SDS011;62184;52.006;5.924;2022-12-04T10:39:43;23.77;;;11.93;;
73841;SDS011;62184;52.006;5.924;2022-12-04T10:42:23;28.80;;;15.03;;
73841;SDS011;62184;52.006;5.924;2022-12-04T10:44:56;24.73;;;13.27;;
73841;SDS011;62184;52.006;5.924;2022-12-04T10:47:22;25.48;;;13.65;;
73841;SDS011;62184;52.006;5.924;2022-12-04T10:49:52;27.40;;;14.40;;
73841;SDS011;62184;52.006;5.924;2022-12-04T10:52:25;26.67;;;14.27;;
73841;SDS011;62184;52.006;5.924;2022-12-04T10:54:52;26.87;;;13.97;;
73841;SDS011;62184;52.006;5.924;2022-12-04T10:57:32;27.17;;;14.63;;
73841;SDS011;62184;52.006;5.924;2022-12-04T11:00:03;26.08;;;13.65;;
73841;SDS011;62184;52.006;5.924;2022-12-04T11:02:49;25.37;;;13.30;;
73841;SDS011;62184;52.006;5.924;2022-12-04T11:05:24;24.95;;;13.10;;
73841;SDS011;62184;52.006;5.924;2022-12-04T11:07:56;25.02;;;13.40;;
73841;SDS011;62184;52.006;5.924;2022-12-04T11:10:27;22.58;;;13.32;;
73841;SDS011;62184;52.006;5.924;2022-12-04T11:13:03;22.90;;;12.60;;
73841;SDS011;62184;52.006;5.924;2022-12-04T11:15:41;25.52;;;13.35;;
73841;SDS011;62184;52.006;5.924;2022-12-04T11:18:14;25.47;;;13.77;;
73841;SDS011;62184;52.006;5.924;2022-12-04T11:20:48;25.13;;;13.13;;
73841;SDS011;62184;52.006;5.924;2022-12-04T11:23:18;22.53;;;12.97;;
73841;SDS011;62184;52.006;5.924;2022-12-04T11:25:46;24.60;;;13.40;;
73841;SDS011;62184;52.006;5.924;2022-12-04T11:28:18;23.60;;;12.95;;
73841;SDS011;62184;52.006;5.924;2022-12-04T11:30:50;23.52;;;13.15;;
73841;SDS011;62184;52.006;5.924;2022-12-04T11:33:23;26.13;;;14.27;;
73841;SDS011;62184;52.006;5.924;2022-12-04T11:35:58;25.98;;;13.52;;
73841;SDS011;62184;52.006;5.924;2022-12-04T11:38:29;26.02;;;13.60;;
73841;SDS011;62184;52.006;5.924;2022-12-04T11:41:00;25.00;;;13.75;;
73841;SDS011;62184;52.006;5.924;2022-12-04T11:43:33;23.92;;;12.75;;
73841;SDS011;62184;52.006;5.924;2022-12-04T11:46:00;25.75;;;14.05;;
73841;SDS011;62184;52.006;5.924;2022-12-04T11:48:30;26.55;;;14.63;;
73841;SDS011;62184;52.006;5.924;2022-12-04T11:51:08;27.67;;;14.30;;
73841;SDS011;62184;52.006;5.924;2022-12-04T11:53:49;26.40;;;14.33;;
73841;SDS011;62184;52.006;5.924;2022-12-04T11:56:25;25.33;;;13.98;;
73841;SDS011;62184;52.006;5.924;2022-12-04T11:59:10;23.17;;;13.07;;
73841;SDS011;62184;52.006;5.924;2022-12-04T12:01:56;27.70;;;14.93;;
73841;SDS011;62184;52.006;5.924;2022-12-04T12:04:58;23.77;;;13.52;;
73841;SDS011;62184;52.006;5.924;2022-12-04T12:07:42;26.47;;;15.43;;
73841;SDS011;62184;52.006;5.924;2022-12-04T12:10:24;25.63;;;14.32;;
73841;SDS011;62184;52.006;5.924;2022-12-04T12:13:03;22.80;;;12.55;;
73841;SDS011;62184;52.006;5.924;2022-12-04T12:15:40;24.38;;;13.82;;
73841;SDS011;62184;52.006;5.924;2022-12-04T12:18:20;24.45;;;13.48;;
73841;SDS011;62184;52.006;5.924;2022-12-04T12:21:22;25.88;;;14.57;;
73841;SDS011;62184;52.006;5.924;2022-12-04T12:24:03;24.50;;;13.77;;
73841;SDS011;62184;52.006;5.924;2022-12-04T12:26:48;25.08;;;13.90;;
73841;SDS011;62184;52.006;5.924;2022-12-04T12:29:36;23.67;;;13.77;;
73841;SDS011;62184;52.006;5.924;2022-12-04T12:32:25;26.98;;;14.50;;
73841;SDS011;62184;52.006;5.924;2022-12-04T12:35:16;23.60;;;13.35;;
73841;SDS011;62184;52.006;5.924;2022-12-04T12:37:50;25.30;;;13.80;;
73841;SDS011;62184;52.006;5.924;2022-12-04T12:40:25;24.10;;;13.80;;
73841;SDS011;62184;52.006;5.924;2022-12-04T12:43:02;23.63;;;13.00;;
73841;SDS011;62184;52.006;5.924;2022-12-04T12:45:40;23.50;;;12.75;;
73841;SDS011;62184;52.006;5.924;2022-12-04T12:48:23;23.58;;;13.50;;
73841;SDS011;62184;52.006;5.924;2022-12-04T12:51:00;24.58;;;13.10;;
73841;SDS011;62184;52.006;5.924;2022-12-04T12:53:35;23.23;;;13.90;;
73841;SDS011;62184;52.006;5.924;2022-12-04T12:56:07;24.50;;;14.13;;
73841;SDS011;62184;52.006;5.924;2022-12-04T12:58:37;22.65;;;13.52;;
73841;SDS011;62184;52.006;5.924;2022-12-04T13:01:11;22.15;;;12.63;;
73841;SDS011;62184;52.006;5.924;2022-12-04T13:03:48;23.55;;;12.70;;
73841;SDS011;62184;52.006;5.924;2022-12-04T13:06:25;24.37;;;13.27;;
73841;SDS011;62184;52.006;5.924;2022-12-04T13:09:02;21.85;;;11.68;;
73841;SDS011;62184;52.006;5.924;2022-12-04T13:11:39;22.20;;;12.63;;
73841;SDS011;62184;52.006;5.924;2022-12-04T13:14:11;22.35;;;12.65;;
73841;SDS011;62184;52.006;5.924;2022-12-04T13:16:39;24.02;;;13.20;;
73841;SDS011;62184;52.006;5.924;2022-12-04T13:19:15;21.90;;;12.35;;
73841;SDS011;62184;52.006;5.924;2022-12-04T13:21:50;23.70;;;12.95;;
73841;SDS011;62184;52.006;5.924;2022-12-04T13:27:41;25.65;;;13.85;;
73841;SDS011;62184;52.006;5.924;2022-12-04T13:30:21;26.60;;;14.03;;
73841;SDS011;62184;52.006;5.924;2022-12-04T13:33:06;24.02;;;12.98;;
73841;SDS011;62184;52.006;5.924;2022-12-04T13:42:01;25.75;;;14.68;;
73841;SDS011;62184;52.006;5.924;2022-12-04T13:44:31;25.73;;;13.55;;
73841;SDS011;62184;52.006;5.924;2022-12-04T13:47:01;25.50;;;13.77;;
73841;SDS011;62184;52.006;5.924;2022-12-04T13:49:30;27.45;;;14.43;;
73841;SDS011;62184;52.006;5.924;2022-12-04T13:52:03;29.30;;;14.57;;
73841;SDS011;62184;52.006;5.924;2022-12-04T13:54:46;26.73;;;14.70;;
73841;SDS011;62184;52.006;5.924;2022-12-04T13:57:22;27.50;;;14.18;;
73841;SDS011;62184;52.006;5.924;2022-12-04T14:00:00;31.07;;;16.03;;
73841;SDS011;62184;52.006;5.924;2022-12-04T14:02:31;29.42;;;15.60;;
73841;SDS011;62184;52.006;5.924;2022-12-04T14:05:00;31.27;;;17.00;;
73841;SDS011;62184;52.006;5.924;2022-12-04T14:07:33;32.92;;;16.63;;
73841;SDS011;62184;52.006;5.924;2022-12-04T14:10:03;31.35;;;16.73;;
73841;SDS011;62184;52.006;5.924;2022-12-04T14:12:48;30.70;;;16.15;;
73841;SDS011;62184;52.006;5.924;2022-12-04T14:15:24;31.85;;;17.02;;
73841;SDS011;62184;52.006;5.924;2022-12-04T14:17:57;32.58;;;16.20;;
73841;SDS011;62184;52.006;5.924;2022-12-04T14:20:27;33.92;;;17.83;;
73841;SDS011;62184;52.006;5.924;2022-12-04T14:23:08;33.27;;;16.80;;
73841;SDS011;62184;52.006;5.924;2022-12-04T14:25:51;36.22;;;17.58;;
73841;SDS011;62184;52.006;5.924;2022-12-04T14:28:26;34.27;;;17.30;;
73841;SDS011;62184;52.006;5.924;2022-12-04T14:31:16;35.60;;;18.10;;
73841;SDS011;62184;52.006;5.924;2022-12-04T14:33:51;37.85;;;19.10;;
73841;SDS011;62184;52.006;5.924;2022-12-04T14:36:23;34.67;;;17.85;;
73841;SDS011;62184;52.006;5.924;2022-12-04T14:39:01;35.65;;;18.40;;
73841;SDS011;62184;52.006;5.924;2022-12-04T14:41:38;38.10;;;18.45;;
73841;SDS011;62184;52.006;5.924;2022-12-04T14:44:11;35.20;;;17.40;;
73841;SDS011;62184;52.006;5.924;2022-12-04T14:46:51;36.22;;;18.02;;
73841;SDS011;62184;52.006;5.924;2022-12-04T14:49:27;37.28;;;19.23;;
73841;SDS011;62184;52.006;5.924;2022-12-04T14:52:12;36.85;;;18.60;;
73841;SDS011;62184;52.006;5.924;2022-12-04T14:54:52;36.43;;;18.23;;
73841;SDS011;62184;52.006;5.924;2022-12-04T14:57:34;38.80;;;18.65;;
73841;SDS011;62184;52.006;5.924;2022-12-04T15:00:26;37.83;;;18.70;;
73841;SDS011;62184;52.006;5.924;2022-12-04T15:02:54;35.13;;;17.33;;